Delta Virtual Airport Information Service

Goose Bay Airport

ICAO: CYYR Country: Canada
Latitude: 53.3192 Longitude: -60.4258
Latest Arrival : WJA4868351 (CYUL-CYYR) Latest Departure : WJA4868351 (CYYR-CYVR)


WX CaptureLIVE
Data provided by noaa.gov | Fetched at 00:05:25

METAR : CYYR 120300Z 32007KT 15SM SCT026 OVC047 03/M02 A2995 RMK SC3SC5 SLP145

TAF : CYYR 112330Z 1200/1224 35012KT P6SM FEW015 BKN030 OVC050 TEMPO 1200/1202 P6SM -SHRA BKN015 OVC030 FM120200 35012KT P6SM SCT012 OVC025 TEMPO 1202/1208 5SM -SHRASN BR SCT006 OVC012 FM120800 35012KT 3SM -SHSN SCT006 OVC012 FM121200 35012G22KT 3SM -SHRASN BR SCT008 OVC015 FM121600 35015G25KT 6SM -SHRA BR SCT015 OVC025 FM122000 35015G25KT P6SM SCT020 BKN030 RMK NXT FCST BY 120600Z


Runway Data for CYYR
Data provided by openaviationdata.com

Runway ID Mag Var Hdg Length Elevation Surface ILS Freq ILS Id ILS Slope
8 -24 79° 11025 ft 160 ft Concrete 110.3 IYR 3
16 -24 157° 9586 ft 160 ft Concrete -- -- --
26 -24 259° 11025 ft 160 ft Concrete -- -- --
34 -24 337° 9586 ft 160 ft Concrete -- -- --

Goose Bay Airport, Canada
Use only for reference purposes



Not for navigational purposes.